Terminal Aerodrome Forecast
Issued by NWS

Home | Current Version | Previous Version | Text Only | Print | Product List | Glossary On
Versions: 1 2 3 4 5 6 7 8 9 10 11 12 13 14 15
000
FTUS43 KEAX 011700 CCA
TAFSTJ
TAF COR
KSTJ 011741Z 0118/0212 08008KT P6SM BKN025
     FM020000 05006KT P6SM VCTS SCT040CB BKN100
     FM020300 04010KT P6SM BKN025=

USA.gov is the U.S. government's official web portal to all federal, state and local government web resources and services.